Satun, Thailand

8:38 AM ICT on August 23, 2014 (GMT +0700)
Hat Yai International | Change Station
CLOSE
Current Station
Airport
Location: Hat Yai,
Elevation: 89 ft
Nearby Weather Stations

Elev 89 ft 6.93 °N, 100.39 °E | Updated 8 minutes ago

Mostly Cloudy
Mostly Cloudy
81 °F
Feels Like 87 °F
N
2
Wind Variable Wind from North

Today
High -- | Low -- °F
--% Chance of Precip.
Yesterday
High -- | Low -- °F
Precip. -- in
6:13 AM 6:31 PM
Waning Crescent, 6% visible
Pressure 29.86 in
Visibility 4.3 miles
Clouds Few 2000 ft
Scattered Clouds 12000 ft
Mostly Cloudy 30000 ft
Heat Index 87 °F
Dew Point 77 °F
Humidity 89%
Rainfall 0.00 in
Snow Depth Not available.
UV 2 out of 12
Pollen Not available.
Air Quality Not available.
Flu Activity Not available.
METAR VTSS 230130Z 01002KT 7000 FEW020 SCT120 BKN300 27/25 Q1011 A2986 NOSIG

More Conditions Fewer Conditions

Pressure 29.86 in
Visibility 4.3 miles
Clouds Few 2000 ft
Scattered Clouds 12000 ft
Mostly Cloudy 30000 ft
Heat Index 87 °F
Dew Point 77 °F
Humidity 89%
Rainfall 0.00 in
Snow Depth Not available.
UV 2 out of 12
Pollen Not available.
Air Quality Not available.
Flu Activity Not available.
METAR VTSS 230130Z 01002KT 7000 FEW020 SCT120 BKN300 27/25 Q1011 A2986 NOSIG

More Conditions Fewer Conditions

10-Day Weather Forecast

Almanac

Astronomy

Aug. 23, 2014 Rise Set
Actual Time 6:13 AM ICT 6:31 PM ICT
Civil Twilight 5:52 AM ICT 6:52 PM ICT
Nautical Twilight 5:27 AM ICT 7:17 PM ICT
Astronomical Twilight 5:02 AM ICT 7:42 PM ICT
Moon 4:13 AM ICT 4:49 PM ICT
Length of Visible Light 13h 00m
Length of Day
12h 17m
Tomorrow will be 0m 21s shorter.
Waning Crescent, 6% of the Moon is Illuminated
Aug 22
Waning Crescent
Aug 25
New
Sep 2
First Quarter
Sep 8
Full
Sep 15
Last Quarter

Yesterday's Extremes

Country Highs Country Lows

Community

WunderPhotos

Upload Photos

1,746,337 photos uploaded!

WunderBlogs® & News

Nearby

Snow Depth

Not available.

Earthquake Activity

City Distance Mag. Time & Date
No recent earthquake activity has been reported nearby.
Minimum magnitude displayed is 2.5.

Coastal Water Temperatures

Place Temperature
No Stations Reporting

Nearby Weather Stations